Portada
METAR-TAF:

METAR-TAF

Aeropuertos :

Damasco, Siria

Aeropuerto Internacional de Damasco

latitud: 33-25N, longitud: 036-31E, altitud: 608 m

Observación

El informe se hizo hace 29 minutos, a las 04:00 UTC
Viento 5 kt del sur-suroeste
Temperatura 16°C
Humedad 34%
Presión 1016 hPa

METAR: OSDI 280400Z 21005KT 16/M00 Q1016

Hora: 07:29 (04:29 UTC)

Pronóstico

Pronóstico válido del 28 a las 00 UTC al 29 a las 06 UTC
Viento 10 kt del oeste-noroeste
Visibilidad 10 km o más
sin nubes por debajo de 1500 m y sin presencia de cumulonimbus.
Temporalmente
del 28 a las 12 UTC al 28 a las 18 UTC
Viento 10 kt del sur-suroeste
Visibilidad: 8000 m
Escasas nubes a una altura de 3000 ft

TAF: OSDI 2800/2906 30010KT CAVOK TEMPO 2812/2818 21010KT 8000 FEW030

Observaciones y pronósticos meteorológicos de más de 4000 aeropuertos (mensajes METAR y TAF).

Los puntos amarillos y rojos representan las estaciones disponibles.

Ponga el ratón en el punto deseado para ver el nombre de la estación.

Haga clic para ver las observaciones y los pronósticos meteorológicos.

Para cambiar el mapa : haga clic en los botones verdes con una cruz de color negro para hacer un zoom, en el botón verde con un guión para alejar o en las flechas verdes para mapas adyacentes.


METAR-TAF: